Time;durP1;ratioP1;P1;durP2;ratioP2;P2;SDS_P1;SDS_P2;PMS_P1;PMS_P2;Temp;Humidity;BMP_temperature;BMP_pressure;BME280_temperature;BME280_humidity;BME280_pressure;Samples;Min_cycle;Max_cycle;Signal;HPM_P1;HPM_P2
2022/12/26 00:01:35;;;;;;;45.95;24.25;;;;;;;-1.09;83.36;94276.44;5010506;28;20176;-40
2022/12/26 00:04:01;;;;;;;45.83;24.75;;;;;;;-1.16;84.33;94273.28;5008454;28;20033;-42
2022/12/26 00:06:28;;;;;;;55.22;28.23;;;;;;;-1.00;84.12;94270.25;5008903;28;20026;-41
2022/12/26 00:08:54;;;;;;;59.38;30.45;;;;;;;-1.07;84.01;94267.84;5008086;28;20017;-40
2022/12/26 00:11:20;;;;;;;103.85;46.20;;;;;;;-1.03;83.44;94279.28;5009035;28;20026;-42
2022/12/26 00:13:46;;;;;;;113.97;50.13;;;;;;;-0.89;83.13;94284.09;5011212;28;20104;-40
2022/12/26 00:16:16;;;;;;;95.00;46.15;;;;;;;-0.98;82.62;94293.00;5008185;28;20109;-41
2022/12/26 00:18:42;;;;;;;70.18;35.67;;;;;;;-1.14;82.89;94295.25;5009412;28;20057;-44
2022/12/26 00:21:09;;;;;;;75.60;36.03;;;;;;;-1.24;83.23;94304.59;5011746;28;20460;-40
2022/12/26 00:23:35;;;;;;;70.00;33.13;;;;;;;-1.23;83.40;94306.09;5002291;28;20029;-41
2022/12/26 00:26:09;;;;;;;63.08;35.13;;;;;;;-1.17;83.50;94305.03;5012768;28;20517;-40
2022/12/26 00:28:34;;;;;;;47.67;25.10;;;;;;;-1.21;83.57;94309.13;5017025;28;20032;-40
2022/12/26 00:31:05;;;;;;;47.05;25.83;;;;;;;-1.13;83.08;94310.31;5013547;28;20009;-40
2022/12/26 00:33:33;;;;;;;59.03;30.30;;;;;;;-1.12;82.82;94314.50;5015013;28;20044;-40
2022/12/26 00:36:21;;;;;;;63.70;33.20;;;;;;;-1.19;82.18;94299.31;5014436;28;20392;-40
2022/12/26 00:38:46;;;;;;;58.57;28.33;;;;;;;-1.22;82.65;94315.72;5012873;28;20017;-40
2022/12/26 00:41:13;;;;;;;52.85;27.42;;;;;;;-1.10;82.68;94312.09;5015578;28;20029;-40
2022/12/26 00:43:38;;;;;;;37.10;18.98;;;;;;;-1.12;82.63;94312.56;5013075;28;20022;-40
2022/12/26 00:46:04;;;;;;;38.70;16.05;;;;;;;-1.33;82.98;94315.44;5007653;28;20033;-40
2022/12/26 00:48:30;;;;;;;35.42;18.05;;;;;;;-1.32;83.20;94292.56;5013880;28;20022;-40
2022/12/26 00:50:56;;;;;;;40.63;23.08;;;;;;;-1.23;83.20;94308.78;5012661;28;20405;-41
2022/12/26 00:53:22;;;;;;;41.25;20.27;;;;;;;-1.34;82.69;94313.94;5012902;28;20112;-40
2022/12/26 00:55:48;;;;;;;34.70;17.52;;;;;;;-1.33;82.25;94315.44;5011940;28;20036;-40
2022/12/26 00:58:14;;;;;;;36.33;18.33;;;;;;;-1.43;82.33;94311.97;5012703;28;20022;-39
2022/12/26 01:00:39;;;;;;;23.33;13.90;;;;;;;-1.28;81.72;94314.84;5015154;28;20808;-40
2022/12/26 01:03:08;;;;;;;22.60;15.23;;;;;;;-1.26;81.22;94301.59;5012545;28;20417;-40
2022/12/26 01:05:34;;;;;;;39.03;21.20;;;;;;;-1.29;80.76;94322.19;5027604;28;20083;-41
2022/12/26 01:08:00;;;;;;;32.92;16.95;;;;;;;-1.29;82.08;94324.16;5012747;28;20117;-39
2022/12/26 01:10:26;;;;;;;42.80;20.75;;;;;;;-1.31;81.80;94331.97;5014287;28;20037;-40
2022/12/26 01:12:52;;;;;;;38.65;19.30;;;;;;;-1.37;81.43;94325.66;5014356;28;20026;-40
2022/12/26 01:15:18;;;;;;;27.25;11.52;;;;;;;-1.22;81.46;94324.63;5015170;28;20542;-40
2022/12/26 01:17:43;;;;;;;20.90;12.18;;;;;;;-1.20;81.56;94318.75;5012309;28;20101;-41
2022/12/26 01:20:09;;;;;;;17.95;8.90;;;;;;;-1.37;82.12;94310.16;5013951;28;20046;-40
2022/12/26 01:22:36;;;;;;;15.85;7.90;;;;;;;-1.38;83.07;94322.19;5013924;28;20060;-40
2022/12/26 01:25:02;;;;;;;16.48;8.60;;;;;;;-1.35;83.29;94320.53;5013944;28;20093;-40
2022/12/26 01:27:27;;;;;;;23.80;11.65;;;;;;;-1.21;83.17;94319.97;5016525;28;20100;-41
2022/12/26 01:29:53;;;;;;;19.63;10.13;;;;;;;-1.32;83.36;94319.66;5012523;28;20017;-40
2022/12/26 01:32:19;;;;;;;21.75;12.13;;;;;;;-1.32;83.45;94317.69;5013670;28;20425;-41
2022/12/26 01:34:44;;;;;;;31.30;16.80;;;;;;;-1.30;83.83;94314.53;5011957;28;20026;-41
2022/12/26 01:37:14;;;;;;;39.08;17.23;;;;;;;-1.26;83.89;94315.91;5015764;28;20044;-42
2022/12/26 01:39:39;;;;;;;34.28;15.18;;;;;;;-1.19;84.23;94315.56;5012922;28;20126;-41
2022/12/26 01:42:12;;;;;;;49.95;17.33;;;;;;;-1.16;83.60;94308.50;5011953;28;20104;-41
2022/12/26 01:44:59;;;;;;;32.08;15.25;;;;;;;-1.19;83.54;94312.13;5011397;28;20026;-41
2022/12/26 01:47:42;;;;;;;34.08;18.30;;;;;;;-1.21;84.04;94317.97;5016405;28;20033;-41
2022/12/26 01:50:23;;;;;;;30.48;16.58;;;;;;;-1.18;82.87;94327.16;5023062;28;20056;-41
2022/12/26 01:52:49;;;;;;;31.05;16.58;;;;;;;-1.23;82.60;94317.69;5011167;28;20060;-41
2022/12/26 01:55:17;;;;;;;35.92;16.38;;;;;;;-1.27;82.43;94308.19;5012041;28;20462;-41
2022/12/26 01:57:45;;;;;;;30.58;16.27;;;;;;;-1.36;82.50;94308.19;5013463;28;20033;-41
2022/12/26 02:00:11;;;;;;;27.05;14.80;;;;;;;-1.47;83.08;94302.50;5023943;28;20539;-41
2022/12/26 02:05:35;;;;;;;22.83;11.15;;;;;;;-1.22;84.44;94315.72;5011828;28;20025;-40
2022/12/26 02:08:05;;;;;;;21.35;10.32;;;;;;;-1.24;84.21;94310.78;5019751;28;20030;-42
2022/12/26 02:10:35;;;;;;;36.65;12.15;;;;;;;-1.30;84.22;94307.13;5011339;28;20246;-41
2022/12/26 02:13:01;;;;;;;58.65;14.68;;;;;;;-1.24;84.43;94299.94;5007613;28;20085;-44
2022/12/26 02:15:27;;;;;;;66.93;21.88;;;;;;;-1.18;84.69;94298.13;5030745;28;20124;-41
2022/12/26 02:17:53;;;;;;;47.78;22.30;;;;;;;-1.19;84.30;94306.72;5026680;28;20088;-40
2022/12/26 02:20:29;;;;;;;78.55;22.13;;;;;;;-1.28;85.33;94301.28;5013403;28;20402;-40
2022/12/26 02:23:28;;;;;;;50.67;23.55;;;;;;;-1.36;85.25;94300.06;5010382;28;20512;-41
2022/12/26 02:26:20;;;;;;;45.20;20.30;;;;;;;-1.55;86.12;94304.72;5009484;28;20516;-40
2022/12/26 02:29:03;;;;;;;44.58;19.95;;;;;;;-1.62;86.61;94311.19;4986611;28;20038;-40
2022/12/26 02:31:48;;;;;;;40.25;18.90;;;;;;;-1.69;86.73;94310.75;5010682;28;20030;-41
2022/12/26 02:34:16;;;;;;;31.85;14.65;;;;;;;-1.61;86.57;94322.78;5012617;28;20053;-41
2022/12/26 02:37:07;;;;;;;28.35;12.75;;;;;;;-1.62;85.73;94327.44;5013444;28;20109;-41
2022/12/26 02:40:07;;;;;;;22.23;9.68;;;;;;;-1.60;85.51;94322.31;5000915;28;20506;-40
2022/12/26 02:42:42;;;;;;;28.77;13.55;;;;;;;-1.61;85.76;94315.41;5024861;28;20078;-41
2022/12/26 02:48:37;;;;;;;27.73;12.52;;;;;;;-1.34;85.83;94320.09;5012118;28;20118;-40
2022/12/26 03:14:19;;;;;;;39.53;16.98;;;;;;;-1.48;85.64;94311.81;5003334;28;20041;-40
2022/12/26 03:19:33;;;;;;;31.60;12.88;;;;;;;-1.63;85.46;94311.66;5010507;28;20560;-41
2022/12/26 03:22:00;;;;;;;32.13;12.35;;;;;;;-1.62;84.32;94315.84;5009303;28;20427;-40
2022/12/26 03:26:38;;;;;;;27.30;14.02;;;;;;;-1.55;84.16;94318.28;5015509;28;20172;-40
2022/12/26 03:27:11;;;;;;;23.00;10.93;;;;;;;-1.61;84.27;94312.72;5017150;28;20065;-41
2022/12/26 03:32:20;;;;;;;17.27;10.00;;;;;;;-1.68;83.93;94326.53;5009529;28;20037;-41
2022/12/26 03:34:45;;;;;;;19.08;8.88;;;;;;;-1.68;83.79;94320.34;5015056;28;20497;-42
2022/12/26 03:37:23;;;;;;;17.30;8.68;;;;;;;-1.76;83.90;94313.72;5012435;28;20239;-40
2022/12/26 04:44:25;;;;;;;37.20;15.70;;;;;;;-1.77;85.89;94315.69;5029946;28;20037;-39
2022/12/26 04:46:52;;;;;;;50.75;18.15;;;;;;;-1.70;86.05;94315.41;5011968;28;20467;-39
2022/12/26 04:52:06;;;;;;;59.05;22.02;;;;;;;-1.83;86.20;94320.19;5013771;28;20096;-40
2022/12/26 04:54:31;;;;;;;51.20;24.58;;;;;;;-1.64;85.30;94324.44;5015230;28;20105;-39
2022/12/26 04:56:57;;;;;;;41.28;20.80;;;;;;;-1.72;85.20;94328.63;5016240;28;20124;-39
2022/12/26 04:59:23;;;;;;;38.45;18.52;;;;;;;-2.13;85.70;94321.00;5017477;28;20064;-43
2022/12/26 05:10:25;;;;;;;50.33;24.65;;;;;;;-2.54;86.42;94334.94;5013187;28;20041;-43
2022/12/26 05:12:50;;;;;;;46.10;20.45;;;;;;;-2.54;86.55;94326.84;5028021;28;20109;-44
2022/12/26 05:15:16;;;;;;;43.00;21.63;;;;;;;-2.44;86.34;94331.09;5017909;28;20029;-45
2022/12/26 05:28:56;;;;;;;30.98;16.60;;;;;;;-1.99;85.17;94347.50;5020256;28;20115;-41
2022/12/26 05:31:22;;;;;;;30.23;16.60;;;;;;;-1.94;84.71;94355.03;5011463;28;20109;-40
2022/12/26 05:34:06;;;;;;;41.08;19.83;;;;;;;-1.98;83.94;94343.59;5020519;28;20117;-41
2022/12/26 05:36:46;;;;;;;40.28;20.35;;;;;;;-2.07;83.15;94348.97;5015563;28;20397;-40
2022/12/26 05:39:12;;;;;;;34.95;19.70;;;;;;;-2.15;83.41;94345.03;5012602;28;20043;-40
2022/12/26 05:41:39;;;;;;;36.97;18.92;;;;;;;-2.36;83.26;94345.88;5015395;28;20466;-41
2022/12/26 05:44:05;;;;;;;38.50;20.88;;;;;;;-2.38;83.66;94356.34;5016150;28;20104;-41
2022/12/26 05:46:30;;;;;;;38.83;21.13;;;;;;;-2.32;83.84;94349.91;5008116;28;20056;-40
2022/12/26 05:48:56;;;;;;;46.60;21.38;;;;;;;-2.28;83.27;94349.78;5011839;28;20033;-39
2022/12/26 05:51:21;;;;;;;48.10;24.58;;;;;;;-2.31;83.86;94332.50;5005517;28;20032;-40
2022/12/26 05:53:47;;;;;;;65.38;27.10;;;;;;;-2.19;84.16;94355.25;5018117;28;20021;-40
2022/12/26 05:56:14;;;;;;;49.40;27.00;;;;;;;-2.17;85.01;94360.22;5012910;28;20417;-39
2022/12/26 05:58:40;;;;;;;52.05;24.63;;;;;;;-2.05;84.12;94357.38;5014854;28;20038;-39
2022/12/26 06:01:14;;;;;;;62.08;28.17;;;;;;;-2.05;83.81;94354.69;5011642;28;20409;-40
2022/12/26 06:03:42;;;;;;;46.63;24.60;;;;;;;-2.15;84.31;94357.81;5013927;28;20029;-40
2022/12/26 06:06:08;;;;;;;48.97;26.27;;;;;;;-2.08;83.77;94358.28;5012738;28;20072;-39
2022/12/26 06:08:33;;;;;;;41.55;20.05;;;;;;;-2.02;83.01;94359.22;5012940;28;20095;-39
2022/12/26 06:11:02;;;;;;;46.97;24.08;;;;;;;-2.13;82.52;94367.00;5013762;28;20065;-40
2022/12/26 06:13:28;;;;;;;;;;;;;;;-2.22;82.53;94364.25;5012216;28;20022;-40
2022/12/26 06:15:53;;;;;;;45.28;23.00;;;;;;;-2.35;82.73;94367.03;5012268;28;19909;-40
2022/12/26 06:18:18;;;;;;;107.78;49.30;;;;;;;-2.36;83.21;94360.13;5012996;28;20544;-40
2022/12/26 06:20:44;;;;;;;73.45;35.45;;;;;;;-2.35;83.53;94358.16;5013217;28;20088;-39
2022/12/26 06:23:09;;;;;;;50.25;23.02;;;;;;;-2.37;83.94;94363.28;5012642;28;20103;-40
2022/12/26 06:25:35;;;;;;;50.70;21.70;;;;;;;-2.38;83.40;94370.63;5018517;28;20029;-40
2022/12/26 06:28:00;;;;;;;31.42;16.35;;;;;;;-2.26;83.36;94374.44;5012791;28;20021;-39
2022/12/26 06:30:26;;;;;;;60.60;30.02;;;;;;;-2.22;83.05;94375.06;5011374;28;20021;-40
2022/12/26 06:32:51;;;;;;;46.53;26.10;;;;;;;-2.20;82.47;94378.06;5013021;28;20021;-40
2022/12/26 06:35:17;;;;;;;45.65;21.17;;;;;;;-2.15;82.79;94382.16;5012021;28;20025;-40
2022/12/26 06:37:42;;;;;;;38.90;19.45;;;;;;;-2.07;82.85;94388.78;5011123;28;20017;-40
2022/12/26 06:40:09;;;;;;;51.88;27.20;;;;;;;-1.99;82.92;94387.34;5012037;28;20083;-39
2022/12/26 06:42:35;;;;;;;49.00;24.38;;;;;;;-1.85;82.24;94389.47;5013416;28;20100;-39
2022/12/26 06:45:00;;;;;;;149.30;49.47;;;;;;;-1.76;82.55;94390.28;5009113;28;20381;-40
2022/12/26 06:47:26;;;;;;;97.95;35.45;;;;;;;-1.87;83.34;94384.53;5014735;28;20040;-40
2022/12/26 06:49:51;;;;;;;53.47;22.23;;;;;;;-1.82;83.22;94392.03;5010325;28;20401;-40
2022/12/26 06:52:17;;;;;;;36.75;20.35;;;;;;;-1.85;83.91;94390.25;5010237;28;20517;-40
2022/12/26 06:54:42;;;;;;;18.50;11.38;;;;;;;-1.73;83.64;94391.31;5011625;28;20037;-40
2022/12/26 06:57:07;;;;;;;45.88;21.02;;;;;;;-1.68;83.94;94386.09;5010935;28;20029;-40
2022/12/26 06:59:33;;;;;;;38.88;19.65;;;;;;;-1.66;84.22;94382.91;5009457;28;20504;-40
2022/12/26 07:01:58;;;;;;;38.45;21.25;;;;;;;-1.38;84.18;94381.78;5007337;28;20129;-41
2022/12/26 07:04:24;;;;;;;50.03;22.83;;;;;;;-0.90;86.05;94389.06;5011545;28;20022;-40
2022/12/26 07:06:49;;;;;;;75.45;30.70;;;;;;;-0.28;88.00;94391.41;5009366;28;20029;-40
2022/12/26 07:09:17;;;;;;;96.65;44.55;;;;;;;0.31;85.50;94385.13;5009268;28;20018;-40
2022/12/26 07:11:45;;;;;;;146.65;68.13;;;;;;;0.68;80.56;94389.16;5009883;28;20018;-41
2022/12/26 07:14:11;;;;;;;132.00;66.97;;;;;;;1.08;77.98;94390.72;5010161;28;20112;-40
2022/12/26 07:16:38;;;;;;;105.72;53.80;;;;;;;1.34;76.59;94381.56;5006646;28;20133;-40
2022/12/26 07:19:04;;;;;;;83.82;42.72;;;;;;;1.40;75.31;94389.84;5008842;28;20202;-40
2022/12/26 07:21:29;;;;;;;93.00;46.80;;;;;;;1.52;73.20;94364.34;5008464;28;20081;-40
2022/12/26 07:23:55;;;;;;;116.80;53.42;;;;;;;1.85;71.49;94397.59;5009206;28;20029;-41
2022/12/26 07:26:22;;;;;;;88.43;44.97;;;;;;;2.13;71.22;94403.50;5008049;28;20117;-41
2022/12/26 07:28:47;;;;;;;95.15;47.67;;;;;;;2.56;68.43;94407.38;4999078;28;20025;-40
2022/12/26 07:31:17;;;;;;;73.00;40.42;;;;;;;2.59;67.46;94395.53;5001072;28;20084;-42
2022/12/26 07:33:46;;;;;;;64.00;36.17;;;;;;;2.55;67.71;94403.16;5002414;28;20028;-41
2022/12/26 07:36:11;;;;;;;65.25;39.25;;;;;;;2.12;69.43;94399.28;5002029;28;20398;-42
2022/12/26 07:38:37;;;;;;;51.80;31.08;;;;;;;2.34;70.22;94410.50;4999589;28;20026;-43
2022/12/26 07:41:56;;;;;;;49.17;27.27;;;;;;;2.53;70.49;94405.59;5003092;28;20018;-42
2022/12/26 07:43:48;;;;;;;56.03;33.35;;;;;;;2.59;70.39;94396.28;5001057;28;20034;-41
2022/12/26 07:46:13;;;;;;;49.65;30.02;;;;;;;2.84;71.01;94386.69;4998478;28;20496;-41
2022/12/26 07:48:39;;;;;;;43.42;27.08;;;;;;;3.18;69.96;94409.72;5001021;28;20358;-41
2022/12/26 07:51:04;;;;;;;31.55;20.75;;;;;;;3.64;68.87;94408.50;4999825;28;20033;-41
2022/12/26 07:53:30;;;;;;;17.13;12.75;;;;;;;4.11;67.61;94406.47;5000848;28;20526;-42
2022/12/26 07:55:58;;;;;;;26.73;13.57;;;;;;;4.66;66.66;94406.16;5002939;28;20041;-43
2022/12/26 07:58:24;;;;;;;19.85;14.70;;;;;;;5.42;64.03;94405.06;5002716;28;20498;-43
2022/12/26 08:00:49;;;;;;;31.17;19.70;;;;;;;6.52;59.99;94406.56;5001198;28;20027;-42
2022/12/26 08:03:15;;;;;;;36.55;20.40;;;;;;;7.53;57.78;94403.84;5001036;28;20029;-43
2022/12/26 08:05:44;;;;;;;61.72;38.75;;;;;;;8.53;54.56;94400.53;4999003;28;20041;-45
2022/12/26 08:08:10;;;;;;;36.63;24.48;;;;;;;9.56;51.60;94382.72;4999931;28;20773;-42
2022/12/26 08:10:36;;;;;;;21.67;16.35;;;;;;;10.56;49.29;94393.16;5001961;28;20120;-43
2022/12/26 08:13:02;;;;;;;25.15;17.15;;;;;;;11.42;47.04;94387.13;4998808;28;20018;-41
2022/12/26 08:15:28;;;;;;;18.23;13.27;;;;;;;12.11;46.01;94395.81;5002565;28;20028;-43
2022/12/26 08:17:53;;;;;;;21.90;14.88;;;;;;;12.71;43.85;94386.66;4998932;28;20033;-42
2022/12/26 08:20:19;;;;;;;13.88;12.13;;;;;;;13.18;43.57;94365.09;4998939;28;20150;-42
2022/12/26 08:22:44;;;;;;;12.45;9.73;;;;;;;13.55;42.77;94391.59;5010071;28;20545;-41
2022/12/26 08:25:10;;;;;;;13.07;10.35;;;;;;;14.03;41.38;94395.56;5009524;28;20036;-41
2022/12/26 08:27:36;;;;;;;11.75;9.30;;;;;;;14.15;40.47;94346.72;5008368;28;20056;-40
2022/12/26 08:30:02;;;;;;;12.38;8.02;;;;;;;14.16;40.55;94373.94;4999431;28;20387;-43
2022/12/26 08:32:27;;;;;;;8.02;6.03;;;;;;;13.48;42.77;94367.31;4998859;28;20033;-41
2022/12/26 08:34:53;;;;;;;10.23;7.93;;;;;;;14.08;41.86;94375.19;4999320;28;20676;-41
2022/12/26 08:37:18;;;;;;;13.68;12.15;;;;;;;15.08;39.25;94376.38;5009031;28;20113;-41
2022/12/26 08:39:44;;;;;;;20.15;17.95;;;;;;;15.61;38.15;94381.19;5008238;28;20022;-40
2022/12/26 08:42:09;;;;;;;14.95;13.40;;;;;;;16.12;37.06;94376.03;5014652;28;20057;-41
2022/12/26 08:44:35;;;;;;;13.20;11.40;;;;;;;16.12;37.89;94384.38;5015629;28;20044;-39
2022/12/26 08:47:00;;;;;;;12.70;11.40;;;;;;;16.46;37.17;94362.31;5019271;28;20018;-42
2022/12/26 08:49:26;;;;;;;14.52;13.02;;;;;;;16.66;37.47;94366.88;5013107;28;20728;-41
2022/12/26 08:51:51;;;;;;;11.25;10.15;;;;;;;16.05;37.35;94370.50;5013463;28;20029;-40
2022/12/26 08:54:17;;;;;;;12.20;10.90;;;;;;;15.68;39.14;94375.59;5012501;28;20395;-42
2022/12/26 08:56:42;;;;;;;14.40;12.85;;;;;;;15.86;38.70;94338.25;5013657;28;20505;-41
2022/12/26 08:59:07;;;;;;;13.90;12.35;;;;;;;16.21;38.32;94360.75;5012701;28;20061;-41
2022/12/26 09:01:33;;;;;;;15.88;11.32;;;;;;;16.44;38.47;94362.13;5012150;28;20080;-42
2022/12/26 09:04:02;;;;;;;16.85;13.63;;;;;;;17.69;36.53;94353.25;5012725;28;20528;-42
2022/12/26 09:06:28;;;;;;;14.10;12.70;;;;;;;17.62;36.55;94340.09;5012633;28;20030;-43
2022/12/26 09:08:54;;;;;;;15.77;11.70;;;;;;;17.37;37.51;94350.53;5014860;28;20048;-39
2022/12/26 09:11:25;;;;;;;23.00;17.42;;;;;;;16.98;38.35;94357.00;5016214;28;20029;-39
2022/12/26 09:13:51;;;;;;;18.63;14.02;;;;;;;17.77;36.77;94353.91;5009648;28;20026;-40
2022/12/26 09:16:19;;;;;;;15.13;13.48;;;;;;;18.56;35.40;94355.38;5004181;28;20044;-39
2022/12/26 09:18:45;;;;;;;21.30;16.73;;;;;;;19.31;34.08;94345.13;5005136;28;20049;-39
2022/12/26 09:21:12;;;;;;;20.35;15.05;;;;;;;19.70;33.67;94342.44;5011726;28;20665;-39
2022/12/26 09:23:38;;;;;;;16.15;12.73;;;;;;;19.55;33.64;94344.19;5006407;28;20030;-39
2022/12/26 09:26:04;;;;;;;15.75;11.82;;;;;;;19.65;34.16;94342.13;5001320;28;20041;-39
2022/12/26 09:28:30;;;;;;;12.40;11.13;;;;;;;19.54;34.23;94341.97;5002538;28;20176;-40
2022/12/26 09:32:18;;;;;;;17.20;12.82;;;;;;;19.63;34.78;94344.06;5018927;27;2038229;-40
2022/12/26 09:34:44;;;;;;;17.73;13.60;;;;;;;19.90;34.08;94338.34;5078963;28;20047;-39
2022/12/26 09:37:09;;;;;;;18.50;12.45;;;;;;;20.53;32.93;94324.00;5078976;28;20028;-42
2022/12/26 09:39:35;;;;;;;12.73;11.25;;;;;;;21.24;31.79;94321.28;5081003;28;20036;-40
2022/12/26 09:42:11;;;;;;;10.20;8.48;;;;;;;21.52;31.22;94318.31;5080024;28;20023;-40
2022/12/26 09:45:11;;;;;;;11.07;9.07;;;;;;;22.03;30.66;94310.44;5063936;28;20142;-39
2022/12/26 09:47:39;;;;;;;10.95;8.52;;;;;;;21.60;31.41;94315.31;5084037;28;20020;-39
2022/12/26 09:50:08;;;;;;;11.77;10.38;;;;;;;20.82;32.59;94305.75;5082118;28;20027;-39
2022/12/26 09:52:48;;;;;;;9.90;8.88;;;;;;;21.78;31.00;94311.63;5084558;28;20040;-39
2022/12/26 09:55:36;;;;;;;9.02;7.78;;;;;;;22.29;30.09;94312.13;5062611;28;20035;-38
2022/12/26 09:58:29;;;;;;;10.30;8.35;;;;;;;22.11;30.96;94300.44;5070607;28;20115;-40
2022/12/26 10:01:09;;;;;;;9.15;8.10;;;;;;;21.72;31.34;94302.06;5077700;28;20085;-39
2022/12/26 10:03:44;;;;;;;14.10;8.70;;;;;;;21.98;31.51;94303.84;5062647;28;20024;-40
2022/12/26 10:06:19;;;;;;;13.68;9.48;;;;;;;21.26;32.01;94296.13;5081061;28;20123;-39
2022/12/26 10:09:08;;;;;;;11.48;9.02;;;;;;;21.09;31.60;94292.22;5059761;28;20040;-39
2022/12/26 10:11:55;;;;;;;12.13;8.90;;;;;;;21.21;31.43;94272.66;5062650;28;20039;-40
2022/12/26 10:14:29;;;;;;;7.78;6.05;;;;;;;21.61;30.95;94288.69;5061961;28;20039;-39
2022/12/26 10:17:13;;;;;;;6.88;5.47;;;;;;;21.84;30.83;94281.13;5081046;28;20027;-40
2022/12/26 10:20:06;;;;;;;6.40;4.72;;;;;;;22.02;29.94;94278.78;5063068;28;20458;-41
2022/12/26 10:22:53;;;;;;;5.93;5.28;;;;;;;22.06;30.08;94284.66;5062707;28;20031;-40
2022/12/26 10:25:22;;;;;;;9.05;5.75;;;;;;;21.14;31.53;94277.13;5060477;28;20029;-42
2022/12/26 10:27:49;;;;;;;13.18;6.97;;;;;;;21.04;31.91;94282.06;5059282;28;20027;-40
2022/12/26 10:30:24;;;;;;;12.48;8.35;;;;;;;21.27;32.67;94278.66;5082798;28;20062;-42
2022/12/26 10:32:55;;;;;;;9.70;7.43;;;;;;;21.57;31.80;94265.94;5075668;28;20044;-40
2022/12/26 10:35:36;;;;;;;11.52;5.43;;;;;;;21.38;31.51;94268.84;5062241;28;20478;-41
2022/12/26 10:38:09;;;;;;;8.40;5.80;;;;;;;21.55;31.12;94271.41;5063521;28;20036;-40
2022/12/26 10:40:39;;;;;;;28.58;18.65;;;;;;;21.84;30.38;94266.34;5081115;28;20058;-40
2022/12/26 10:43:32;;;;;;;5.20;3.97;;;;;;;21.69;30.23;94264.66;5064318;28;20033;-40
2022/12/26 10:46:35;;;;;;;5.95;4.88;;;;;;;21.37;30.83;94273.00;5063955;28;20047;-40
2022/12/26 10:49:00;;;;;;;25.55;16.70;;;;;;;20.87;31.70;94256.25;5065914;28;20039;-41
2022/12/26 10:51:26;;;;;;;28.50;19.67;;;;;;;21.44;31.73;94255.22;5069257;28;20111;-41
2022/12/26 10:53:52;;;;;;;17.85;12.35;;;;;;;21.60;30.96;94261.91;5067850;28;20048;-41
2022/12/26 10:56:19;;;;;;;7.28;6.47;;;;;;;21.67;30.41;94253.28;5050362;28;20048;-41
2022/12/26 10:58:59;;;;;;;8.18;5.22;;;;;;;21.88;31.43;94255.34;5047348;28;20024;-40
2022/12/26 11:01:29;;;;;;;7.18;4.63;;;;;;;22.34;30.14;94263.22;5066184;28;20021;-41
2022/12/26 11:03:56;;;;;;;5.95;4.70;;;;;;;21.86;32.10;94258.03;5065971;28;20067;-41
2022/12/26 11:06:24;;;;;;;12.07;10.38;;;;;;;21.81;30.34;94253.44;5066574;28;20107;-39
2022/12/26 11:08:50;;;;;;;6.78;4.35;;;;;;;22.25;31.19;94250.00;5068015;28;20035;-42
2022/12/26 11:11:44;;;;;;;8.85;6.38;;;;;;;22.27;29.77;94252.94;5051597;28;20025;-41
2022/12/26 11:14:25;;;;;;;6.35;4.10;;;;;;;22.09;29.95;94254.59;5067293;28;20039;-55
2022/12/26 11:16:51;;;;;;;4.85;3.38;;;;;;;22.20;31.05;94253.91;5065919;28;20111;-41
2022/12/26 11:19:32;;;;;;;5.10;3.80;;;;;;;22.18;29.12;94246.06;5063584;28;20095;-41
2022/12/26 11:22:14;;;;;;;5.80;4.00;;;;;;;22.36;29.45;94238.78;5064116;28;20020;-42
2022/12/26 11:24:39;;;;;;;12.07;4.70;;;;;;;22.30;29.74;94240.47;5064925;28;20029;-40
2022/12/26 11:27:31;;;;;;;4.90;4.15;;;;;;;22.71;28.74;94244.50;5066031;28;20020;-42
2022/12/26 11:30:20;;;;;;;7.05;5.05;;;;;;;22.06;29.23;94236.84;5062238;28;20056;-44
2022/12/26 11:32:48;;;;;;;6.70;4.13;;;;;;;21.60;30.44;94231.72;5049380;28;20131;-42
2022/12/26 11:35:22;;;;;;;10.25;5.85;;;;;;;20.97;31.54;94228.84;5050517;28;20020;-40
2022/12/26 11:37:56;;;;;;;4.22;3.60;;;;;;;20.93;30.71;94220.16;5067526;28;20039;-40
2022/12/26 11:40:30;;;;;;;3.38;3.03;;;;;;;21.17;30.97;94229.50;5062757;28;20012;-40
2022/12/26 11:42:58;;;;;;;8.27;4.55;;;;;;;21.18;31.67;94222.56;5051603;28;20028;-41
2022/12/26 11:45:26;;;;;;;5.60;4.43;;;;;;;21.38;31.35;94224.66;5064413;28;20031;-41
2022/12/26 11:47:55;;;;;;;7.80;4.80;;;;;;;21.38;31.80;94226.72;5065045;28;20099;-40
2022/12/26 11:50:27;;;;;;;6.43;4.53;;;;;;;21.41;30.40;94217.09;5050298;28;20049;-41
2022/12/26 11:53:03;;;;;;;6.25;5.10;;;;;;;21.30;31.62;94218.50;5068865;28;20028;-41
2022/12/26 11:55:37;;;;;;;6.45;4.45;;;;;;;21.37;30.54;94222.44;5067642;28;20037;-40
2022/12/26 11:58:09;;;;;;;4.47;3.50;;;;;;;21.24;30.41;94226.53;5070006;28;20027;-40
2022/12/26 12:00:43;;;;;;;4.97;4.18;;;;;;;21.00;30.46;94213.63;5064987;28;20114;-40
2022/12/26 12:03:36;;;;;;;4.85;3.33;;;;;;;21.02;29.75;94219.38;5046481;28;20031;-41
2022/12/26 12:06:32;;;;;;;5.25;3.53;;;;;;;21.08;30.54;94217.75;5060667;28;20032;-41
2022/12/26 12:09:15;;;;;;;19.92;10.98;;;;;;;20.62;30.59;94217.34;5067457;28;20024;-40
2022/12/26 12:12:03;;;;;;;26.42;12.50;;;;;;;20.50;31.04;94224.94;5065238;28;20029;-41
2022/12/26 12:14:43;;;;;;;44.13;24.40;;;;;;;20.29;30.96;94213.63;5064122;28;20113;-40
2022/12/26 12:17:14;;;;;;;7.38;6.57;;;;;;;20.18;31.83;94219.84;5062943;28;20029;-41
2022/12/26 12:20:28;;;;;;;7.30;5.70;;;;;;;19.42;32.66;94212.97;5062394;28;20507;-42
2022/12/26 12:23:31;;;;;;;8.00;4.40;;;;;;;19.22;32.97;94211.44;5060824;28;20037;-42
2022/12/26 12:26:10;;;;;;;6.47;5.28;;;;;;;18.80;33.78;94211.06;5062090;28;20453;-40
2022/12/26 12:28:44;;;;;;;8.77;5.10;;;;;;;18.62;33.74;94212.50;5048497;28;20634;-40
2022/12/26 12:31:12;;;;;;;6.88;5.07;;;;;;;18.23;34.93;94208.03;5063735;28;20048;-40
2022/12/26 12:33:38;;;;;;;6.80;4.57;;;;;;;18.20;34.55;94209.91;5067157;28;20039;-40
2022/12/26 12:36:18;;;;;;;12.93;5.30;;;;;;;18.16;34.70;94201.97;5067732;28;20450;-42
2022/12/26 12:39:08;;;;;;;9.40;6.53;;;;;;;17.83;34.34;94203.53;5063542;28;20504;-39
2022/12/26 12:41:59;;;;;;;7.43;4.40;;;;;;;16.88;35.60;94181.16;5048950;28;20017;-41
2022/12/26 12:44:50;;;;;;;8.45;5.30;;;;;;;16.90;36.84;94211.25;5064227;28;20022;-41
2022/12/26 12:47:36;;;;;;;8.13;5.32;;;;;;;17.16;35.74;94207.84;5065259;28;20680;-43
2022/12/26 12:50:42;;;;;;;6.13;3.67;;;;;;;16.64;36.62;94196.63;5064359;28;20057;-42
2022/12/26 12:53:23;;;;;;;10.13;5.25;;;;;;;16.39;38.83;94204.25;5045491;28;20814;-40
2022/12/26 12:55:57;;;;;;;8.25;4.95;;;;;;;16.54;38.70;94198.56;5066174;28;20096;-40
2022/12/26 12:58:38;;;;;;;6.93;4.78;;;;;;;16.65;37.85;94195.28;5067289;28;20123;-40
2022/12/26 13:01:08;;;;;;;17.58;6.78;;;;;;;16.66;37.55;94194.00;5068118;28;20016;-39
2022/12/26 13:03:38;;;;;;;10.18;6.03;;;;;;;16.50;37.68;94192.63;5067189;28;20038;-42
2022/12/26 13:06:14;;;;;;;6.75;4.32;;;;;;;16.10;38.06;94171.75;5068396;28;20404;-40
2022/12/26 13:08:45;;;;;;;11.90;5.28;;;;;;;15.87;38.76;94210.88;5042411;28;20021;-40
2022/12/26 13:11:33;;;;;;;14.80;5.10;;;;;;;15.76;39.32;94208.53;5067463;28;20028;-40
2022/12/26 13:14:22;;;;;;;7.53;5.50;;;;;;;15.88;39.65;94206.78;5048869;28;20526;-41
2022/12/26 13:16:55;;;;;;;10.90;7.72;;;;;;;15.62;39.99;94180.19;5065387;28;20033;-41
2022/12/26 13:19:26;;;;;;;8.70;5.78;;;;;;;15.87;39.84;94210.88;5046338;28;20039;-40
2022/12/26 13:21:56;;;;;;;11.32;6.72;;;;;;;15.73;39.11;94212.44;5049088;28;20404;-40
2022/12/26 13:24:37;;;;;;;10.13;5.88;;;;;;;15.63;39.93;94200.44;5043714;28;20147;-40
2022/12/26 13:27:04;;;;;;;9.13;6.72;;;;;;;15.49;40.01;94202.72;5040408;28;20033;-41
2022/12/26 13:29:30;;;;;;;7.68;5.88;;;;;;;15.41;39.90;94215.16;5047157;28;20044;-40
2022/12/26 13:31:57;;;;;;;9.40;5.78;;;;;;;15.05;40.43;94188.34;5060634;28;20052;-40
2022/12/26 13:34:23;;;;;;;9.07;6.72;;;;;;;15.14;41.32;94226.72;5045168;28;20056;-40
2022/12/26 13:36:51;;;;;;;7.78;5.93;;;;;;;15.01;40.55;94229.72;5048198;28;20066;-40
2022/12/26 13:39:22;;;;;;;15.57;7.55;;;;;;;15.00;41.28;94222.69;5048327;28;20088;-40
2022/12/26 13:44:35;;;;;;;7.60;6.07;;;;;;;14.79;42.03;94224.19;5047834;28;20691;-42
2022/12/26 13:47:01;;;;;;;9.90;6.03;;;;;;;14.63;42.75;94222.72;5062750;28;20033;-41